sensor_id;sensor_type;location;lat;lon;timestamp;P1;durP1;ratioP1;P2;durP2;ratioP2
84125;SDS011;74222;58.696;11.254;2024-01-06T00:01:01;0.70;;;0.70;;
84125;SDS011;74222;58.696;11.254;2024-01-06T00:03:27;0.80;;;0.80;;
84125;SDS011;74222;58.696;11.254;2024-01-06T00:05:54;0.90;;;0.90;;
84125;SDS011;74222;58.696;11.254;2024-01-06T00:08:20;0.70;;;0.70;;
84125;SDS011;74222;58.696;11.254;2024-01-06T00:10:47;0.90;;;0.90;;
84125;SDS011;74222;58.696;11.254;2024-01-06T00:13:13;1.00;;;1.00;;
84125;SDS011;74222;58.696;11.254;2024-01-06T00:15:40;1.00;;;1.00;;
84125;SDS011;74222;58.696;11.254;2024-01-06T00:18:06;0.73;;;0.73;;
84125;SDS011;74222;58.696;11.254;2024-01-06T00:20:33;0.70;;;0.70;;
84125;SDS011;74222;58.696;11.254;2024-01-06T00:22:59;0.77;;;0.77;;
84125;SDS011;74222;58.696;11.254;2024-01-06T00:25:25;0.90;;;0.90;;
84125;SDS011;74222;58.696;11.254;2024-01-06T00:27:52;0.90;;;0.90;;
84125;SDS011;74222;58.696;11.254;2024-01-06T00:30:18;0.83;;;0.83;;
84125;SDS011;74222;58.696;11.254;2024-01-06T00:32:45;0.70;;;0.70;;
84125;SDS011;74222;58.696;11.254;2024-01-06T00:35:11;0.80;;;0.80;;
84125;SDS011;74222;58.696;11.254;2024-01-06T00:37:38;0.90;;;0.90;;
84125;SDS011;74222;58.696;11.254;2024-01-06T00:40:05;0.70;;;0.70;;
84125;SDS011;74222;58.696;11.254;2024-01-06T00:42:32;1.00;;;1.00;;
84125;SDS011;74222;58.696;11.254;2024-01-06T00:44:58;0.80;;;0.80;;
84125;SDS011;74222;58.696;11.254;2024-01-06T00:47:25;0.73;;;0.73;;
84125;SDS011;74222;58.696;11.254;2024-01-06T00:49:51;0.77;;;0.77;;
84125;SDS011;74222;58.696;11.254;2024-01-06T00:52:18;0.80;;;0.80;;
84125;SDS011;74222;58.696;11.254;2024-01-06T00:54:44;1.00;;;1.00;;
84125;SDS011;74222;58.696;11.254;2024-01-06T00:57:11;0.80;;;0.80;;
84125;SDS011;74222;58.696;11.254;2024-01-06T00:59:37;0.80;;;0.80;;
84125;SDS011;74222;58.696;11.254;2024-01-06T01:02:04;0.70;;;0.70;;
84125;SDS011;74222;58.696;11.254;2024-01-06T01:04:30;0.60;;;0.60;;
84125;SDS011;74222;58.696;11.254;2024-01-06T01:06:57;0.80;;;0.80;;
84125;SDS011;74222;58.696;11.254;2024-01-06T01:09:23;0.60;;;0.60;;
84125;SDS011;74222;58.696;11.254;2024-01-06T01:11:50;0.70;;;0.70;;
84125;SDS011;74222;58.696;11.254;2024-01-06T01:14:16;0.93;;;0.93;;
84125;SDS011;74222;58.696;11.254;2024-01-06T01:16:43;0.70;;;0.70;;
84125;SDS011;74222;58.696;11.254;2024-01-06T01:19:09;0.70;;;0.70;;
84125;SDS011;74222;58.696;11.254;2024-01-06T01:21:36;1.07;;;1.07;;
84125;SDS011;74222;58.696;11.254;2024-01-06T01:24:02;0.60;;;0.60;;
84125;SDS011;74222;58.696;11.254;2024-01-06T01:26:29;0.90;;;0.90;;
84125;SDS011;74222;58.696;11.254;2024-01-06T01:28:55;0.80;;;0.80;;
84125;SDS011;74222;58.696;11.254;2024-01-06T01:31:22;0.60;;;0.60;;
84125;SDS011;74222;58.696;11.254;2024-01-06T01:33:48;0.80;;;0.80;;
84125;SDS011;74222;58.696;11.254;2024-01-06T01:36:15;0.80;;;0.80;;
84125;SDS011;74222;58.696;11.254;2024-01-06T01:38:41;0.80;;;0.80;;
84125;SDS011;74222;58.696;11.254;2024-01-06T01:41:08;0.90;;;0.90;;
84125;SDS011;74222;58.696;11.254;2024-01-06T01:43:34;0.70;;;0.70;;
84125;SDS011;74222;58.696;11.254;2024-01-06T01:46:01;0.70;;;0.70;;
84125;SDS011;74222;58.696;11.254;2024-01-06T01:48:27;0.77;;;0.77;;
84125;SDS011;74222;58.696;11.254;2024-01-06T01:50:54;1.43;;;0.80;;
84125;SDS011;74222;58.696;11.254;2024-01-06T01:53:20;0.80;;;0.80;;
84125;SDS011;74222;58.696;11.254;2024-01-06T01:55:47;0.67;;;0.67;;
84125;SDS011;74222;58.696;11.254;2024-01-06T01:58:13;0.80;;;0.80;;
84125;SDS011;74222;58.696;11.254;2024-01-06T02:00:40;0.80;;;0.80;;
84125;SDS011;74222;58.696;11.254;2024-01-06T02:03:06;0.90;;;0.90;;
84125;SDS011;74222;58.696;11.254;2024-01-06T02:05:33;0.60;;;0.60;;
84125;SDS011;74222;58.696;11.254;2024-01-06T02:07:59;0.80;;;0.80;;
84125;SDS011;74222;58.696;11.254;2024-01-06T02:10:26;0.70;;;0.70;;
84125;SDS011;74222;58.696;11.254;2024-01-06T02:12:52;0.70;;;0.70;;
84125;SDS011;74222;58.696;11.254;2024-01-06T02:15:19;0.97;;;0.97;;
84125;SDS011;74222;58.696;11.254;2024-01-06T02:17:45;0.90;;;0.90;;
84125;SDS011;74222;58.696;11.254;2024-01-06T02:20:12;0.70;;;0.70;;
84125;SDS011;74222;58.696;11.254;2024-01-06T02:22:38;0.80;;;0.80;;
84125;SDS011;74222;58.696;11.254;2024-01-06T02:25:05;0.80;;;0.80;;
84125;SDS011;74222;58.696;11.254;2024-01-06T02:27:32;0.80;;;0.80;;
84125;SDS011;74222;58.696;11.254;2024-01-06T02:29:59;0.63;;;0.63;;
84125;SDS011;74222;58.696;11.254;2024-01-06T02:32:25;0.60;;;0.60;;
84125;SDS011;74222;58.696;11.254;2024-01-06T02:34:52;0.70;;;0.70;;
84125;SDS011;74222;58.696;11.254;2024-01-06T02:37:18;0.73;;;0.73;;
84125;SDS011;74222;58.696;11.254;2024-01-06T02:39:45;0.90;;;0.90;;
84125;SDS011;74222;58.696;11.254;2024-01-06T02:42:11;0.60;;;0.60;;
84125;SDS011;74222;58.696;11.254;2024-01-06T02:44:38;1.03;;;1.03;;
84125;SDS011;74222;58.696;11.254;2024-01-06T02:47:04;0.77;;;0.77;;
84125;SDS011;74222;58.696;11.254;2024-01-06T02:49:31;0.70;;;0.70;;
84125;SDS011;74222;58.696;11.254;2024-01-06T02:51:57;0.80;;;0.80;;
84125;SDS011;74222;58.696;11.254;2024-01-06T02:54:24;0.80;;;0.80;;
84125;SDS011;74222;58.696;11.254;2024-01-06T02:56:50;0.97;;;0.97;;
84125;SDS011;74222;58.696;11.254;2024-01-06T02:59:17;0.80;;;0.80;;
84125;SDS011;74222;58.696;11.254;2024-01-06T03:01:43;0.73;;;0.73;;
84125;SDS011;74222;58.696;11.254;2024-01-06T03:04:10;0.60;;;0.60;;
84125;SDS011;74222;58.696;11.254;2024-01-06T03:06:36;0.77;;;0.77;;
84125;SDS011;74222;58.696;11.254;2024-01-06T03:09:03;0.80;;;0.80;;
84125;SDS011;74222;58.696;11.254;2024-01-06T03:11:29;0.60;;;0.60;;
84125;SDS011;74222;58.696;11.254;2024-01-06T03:13:56;0.60;;;0.60;;
84125;SDS011;74222;58.696;11.254;2024-01-06T03:16:22;0.63;;;0.63;;
84125;SDS011;74222;58.696;11.254;2024-01-06T03:18:49;0.73;;;0.73;;
84125;SDS011;74222;58.696;11.254;2024-01-06T03:21:16;0.70;;;0.70;;
84125;SDS011;74222;58.696;11.254;2024-01-06T03:23:42;0.70;;;0.70;;
84125;SDS011;74222;58.696;11.254;2024-01-06T03:26:09;0.80;;;0.80;;
84125;SDS011;74222;58.696;11.254;2024-01-06T03:28:35;1.50;;;0.80;;
84125;SDS011;74222;58.696;11.254;2024-01-06T03:31:02;0.70;;;0.70;;
84125;SDS011;74222;58.696;11.254;2024-01-06T03:33:28;0.80;;;0.80;;
84125;SDS011;74222;58.696;11.254;2024-01-06T03:35:55;0.80;;;0.80;;
84125;SDS011;74222;58.696;11.254;2024-01-06T03:38:21;0.93;;;0.93;;
84125;SDS011;74222;58.696;11.254;2024-01-06T03:40:48;0.70;;;0.70;;
84125;SDS011;74222;58.696;11.254;2024-01-06T03:43:14;0.83;;;0.83;;
84125;SDS011;74222;58.696;11.254;2024-01-06T03:45:41;0.70;;;0.70;;
84125;SDS011;74222;58.696;11.254;2024-01-06T03:48:07;0.70;;;0.70;;
84125;SDS011;74222;58.696;11.254;2024-01-06T03:50:34;0.70;;;0.70;;
84125;SDS011;74222;58.696;11.254;2024-01-06T03:53:00;0.70;;;0.70;;
84125;SDS011;74222;58.696;11.254;2024-01-06T03:55:27;0.77;;;0.77;;
84125;SDS011;74222;58.696;11.254;2024-01-06T03:57:53;0.80;;;0.80;;
84125;SDS011;74222;58.696;11.254;2024-01-06T04:00:20;0.90;;;0.90;;
84125;SDS011;74222;58.696;11.254;2024-01-06T04:02:46;1.00;;;1.00;;
84125;SDS011;74222;58.696;11.254;2024-01-06T04:05:13;0.80;;;0.80;;
84125;SDS011;74222;58.696;11.254;2024-01-06T04:07:39;0.83;;;0.83;;
84125;SDS011;74222;58.696;11.254;2024-01-06T04:10:06;0.70;;;0.70;;
84125;SDS011;74222;58.696;11.254;2024-01-06T04:12:32;0.70;;;0.70;;
84125;SDS011;74222;58.696;11.254;2024-01-06T04:14:59;0.87;;;0.87;;
84125;SDS011;74222;58.696;11.254;2024-01-06T04:17:25;0.90;;;0.90;;
84125;SDS011;74222;58.696;11.254;2024-01-06T04:19:52;0.80;;;0.80;;
84125;SDS011;74222;58.696;11.254;2024-01-06T04:22:18;1.03;;;1.00;;
84125;SDS011;74222;58.696;11.254;2024-01-06T04:24:45;0.70;;;0.63;;
84125;SDS011;74222;58.696;11.254;2024-01-06T04:27:11;0.60;;;0.60;;
84125;SDS011;74222;58.696;11.254;2024-01-06T04:29:38;1.00;;;1.00;;
84125;SDS011;74222;58.696;11.254;2024-01-06T04:32:04;0.60;;;0.60;;
84125;SDS011;74222;58.696;11.254;2024-01-06T04:34:31;0.73;;;0.73;;
84125;SDS011;74222;58.696;11.254;2024-01-06T04:36:57;0.80;;;0.80;;
84125;SDS011;74222;58.696;11.254;2024-01-06T04:39:24;0.70;;;0.70;;
84125;SDS011;74222;58.696;11.254;2024-01-06T04:41:50;0.90;;;0.90;;
84125;SDS011;74222;58.696;11.254;2024-01-06T04:44:20;1.00;;;1.00;;
84125;SDS011;74222;58.696;11.254;2024-01-06T04:46:43;0.90;;;0.90;;
84125;SDS011;74222;58.696;11.254;2024-01-06T04:49:10;0.90;;;0.90;;
84125;SDS011;74222;58.696;11.254;2024-01-06T04:51:36;0.60;;;0.60;;
84125;SDS011;74222;58.696;11.254;2024-01-06T04:54:03;0.67;;;0.67;;
84125;SDS011;74222;58.696;11.254;2024-01-06T04:56:29;0.80;;;0.80;;
84125;SDS011;74222;58.696;11.254;2024-01-06T04:58:56;0.67;;;0.67;;
84125;SDS011;74222;58.696;11.254;2024-01-06T05:01:22;0.93;;;0.93;;
84125;SDS011;74222;58.696;11.254;2024-01-06T05:03:49;0.90;;;0.90;;
84125;SDS011;74222;58.696;11.254;2024-01-06T05:06:15;0.60;;;0.60;;
84125;SDS011;74222;58.696;11.254;2024-01-06T05:08:42;0.80;;;0.80;;
84125;SDS011;74222;58.696;11.254;2024-01-06T05:11:08;0.90;;;0.90;;
84125;SDS011;74222;58.696;11.254;2024-01-06T05:13:35;0.80;;;0.80;;
84125;SDS011;74222;58.696;11.254;2024-01-06T05:16:01;0.80;;;0.80;;
84125;SDS011;74222;58.696;11.254;2024-01-06T05:18:28;0.60;;;0.60;;
84125;SDS011;74222;58.696;11.254;2024-01-06T05:20:54;0.70;;;0.70;;
84125;SDS011;74222;58.696;11.254;2024-01-06T05:23:21;0.80;;;0.80;;
84125;SDS011;74222;58.696;11.254;2024-01-06T05:25:47;0.93;;;0.93;;
84125;SDS011;74222;58.696;11.254;2024-01-06T05:28:14;0.90;;;0.90;;
84125;SDS011;74222;58.696;11.254;2024-01-06T05:30:40;0.80;;;0.80;;
84125;SDS011;74222;58.696;11.254;2024-01-06T05:33:10;0.90;;;0.90;;
84125;SDS011;74222;58.696;11.254;2024-01-06T05:35:36;0.80;;;0.80;;
84125;SDS011;74222;58.696;11.254;2024-01-06T05:38:03;0.90;;;0.90;;
84125;SDS011;74222;58.696;11.254;2024-01-06T05:40:29;0.80;;;0.80;;
84125;SDS011;74222;58.696;11.254;2024-01-06T05:42:56;0.80;;;0.80;;
84125;SDS011;74222;58.696;11.254;2024-01-06T05:45:22;0.90;;;0.90;;
84125;SDS011;74222;58.696;11.254;2024-01-06T05:47:49;0.77;;;0.77;;
84125;SDS011;74222;58.696;11.254;2024-01-06T05:50:15;0.70;;;0.70;;
84125;SDS011;74222;58.696;11.254;2024-01-06T05:52:42;1.00;;;1.00;;
84125;SDS011;74222;58.696;11.254;2024-01-06T05:55:08;0.80;;;0.80;;
84125;SDS011;74222;58.696;11.254;2024-01-06T05:57:35;0.90;;;0.90;;
84125;SDS011;74222;58.696;11.254;2024-01-06T06:00:01;0.70;;;0.70;;
84125;SDS011;74222;58.696;11.254;2024-01-06T06:02:28;0.73;;;0.73;;
84125;SDS011;74222;58.696;11.254;2024-01-06T06:04:54;0.87;;;0.87;;
84125;SDS011;74222;58.696;11.254;2024-01-06T06:07:21;0.60;;;0.60;;
84125;SDS011;74222;58.696;11.254;2024-01-06T06:09:47;1.20;;;1.20;;
84125;SDS011;74222;58.696;11.254;2024-01-06T06:12:14;1.00;;;1.00;;
84125;SDS011;74222;58.696;11.254;2024-01-06T06:14:40;1.23;;;1.23;;
84125;SDS011;74222;58.696;11.254;2024-01-06T06:17:06;0.70;;;0.70;;
84125;SDS011;74222;58.696;11.254;2024-01-06T06:19:33;0.80;;;0.80;;
84125;SDS011;74222;58.696;11.254;2024-01-06T06:21:59;1.00;;;1.00;;
84125;SDS011;74222;58.696;11.254;2024-01-06T06:24:26;0.80;;;0.80;;
84125;SDS011;74222;58.696;11.254;2024-01-06T06:26:52;1.10;;;1.10;;
84125;SDS011;74222;58.696;11.254;2024-01-06T06:29:19;1.00;;;1.00;;
84125;SDS011;74222;58.696;11.254;2024-01-06T06:31:45;1.20;;;1.20;;
84125;SDS011;74222;58.696;11.254;2024-01-06T06:34:12;1.10;;;1.10;;
84125;SDS011;74222;58.696;11.254;2024-01-06T06:36:38;1.10;;;1.10;;
84125;SDS011;74222;58.696;11.254;2024-01-06T06:39:05;1.00;;;1.00;;
84125;SDS011;74222;58.696;11.254;2024-01-06T06:41:31;1.10;;;1.10;;
84125;SDS011;74222;58.696;11.254;2024-01-06T06:43:58;1.20;;;1.10;;
84125;SDS011;74222;58.696;11.254;2024-01-06T06:46:24;1.13;;;1.13;;
84125;SDS011;74222;58.696;11.254;2024-01-06T06:48:51;1.23;;;1.20;;
84125;SDS011;74222;58.696;11.254;2024-01-06T06:51:17;0.97;;;0.97;;
84125;SDS011;74222;58.696;11.254;2024-01-06T06:53:44;1.03;;;1.03;;
84125;SDS011;74222;58.696;11.254;2024-01-06T06:56:10;1.33;;;1.27;;
84125;SDS011;74222;58.696;11.254;2024-01-06T06:58:37;1.13;;;1.13;;
84125;SDS011;74222;58.696;11.254;2024-01-06T07:01:03;1.07;;;1.07;;
84125;SDS011;74222;58.696;11.254;2024-01-06T07:03:30;1.33;;;1.23;;
84125;SDS011;74222;58.696;11.254;2024-01-06T07:05:56;1.40;;;1.30;;
84125;SDS011;74222;58.696;11.254;2024-01-06T07:08:23;1.63;;;1.00;;
84125;SDS011;74222;58.696;11.254;2024-01-06T07:10:49;1.10;;;1.10;;
84125;SDS011;74222;58.696;11.254;2024-01-06T07:13:16;0.90;;;0.90;;
84125;SDS011;74222;58.696;11.254;2024-01-06T07:15:42;1.00;;;1.00;;
84125;SDS011;74222;58.696;11.254;2024-01-06T07:18:09;1.03;;;1.03;;
84125;SDS011;74222;58.696;11.254;2024-01-06T07:20:35;1.03;;;1.03;;
84125;SDS011;74222;58.696;11.254;2024-01-06T07:23:02;1.23;;;1.20;;
84125;SDS011;74222;58.696;11.254;2024-01-06T07:25:28;0.80;;;0.80;;
84125;SDS011;74222;58.696;11.254;2024-01-06T07:27:55;1.00;;;1.00;;
84125;SDS011;74222;58.696;11.254;2024-01-06T07:30:21;1.20;;;1.20;;
84125;SDS011;74222;58.696;11.254;2024-01-06T07:32:48;1.00;;;1.00;;
84125;SDS011;74222;58.696;11.254;2024-01-06T07:35:14;1.00;;;1.00;;
84125;SDS011;74222;58.696;11.254;2024-01-06T07:37:41;1.17;;;1.07;;
84125;SDS011;74222;58.696;11.254;2024-01-06T07:40:07;0.80;;;0.80;;
84125;SDS011;74222;58.696;11.254;2024-01-06T07:42:34;0.83;;;0.83;;
84125;SDS011;74222;58.696;11.254;2024-01-06T07:45:01;1.17;;;1.10;;
84125;SDS011;74222;58.696;11.254;2024-01-06T07:47:27;0.97;;;0.97;;
84125;SDS011;74222;58.696;11.254;2024-01-06T07:49:54;1.10;;;1.10;;
84125;SDS011;74222;58.696;11.254;2024-01-06T07:52:20;1.00;;;1.00;;
84125;SDS011;74222;58.696;11.254;2024-01-06T07:54:47;1.33;;;1.30;;
84125;SDS011;74222;58.696;11.254;2024-01-06T07:57:13;1.00;;;1.00;;
84125;SDS011;74222;58.696;11.254;2024-01-06T07:59:40;0.97;;;0.97;;
84125;SDS011;74222;58.696;11.254;2024-01-06T08:02:06;1.03;;;0.93;;
84125;SDS011;74222;58.696;11.254;2024-01-06T08:04:33;1.03;;;1.03;;
84125;SDS011;74222;58.696;11.254;2024-01-06T08:06:59;0.70;;;0.70;;
84125;SDS011;74222;58.696;11.254;2024-01-06T08:09:26;1.00;;;1.00;;
84125;SDS011;74222;58.696;11.254;2024-01-06T08:11:52;0.70;;;0.70;;
84125;SDS011;74222;58.696;11.254;2024-01-06T08:14:19;0.80;;;0.80;;
84125;SDS011;74222;58.696;11.254;2024-01-06T08:16:45;1.13;;;1.13;;
84125;SDS011;74222;58.696;11.254;2024-01-06T08:19:12;1.23;;;1.20;;
84125;SDS011;74222;58.696;11.254;2024-01-06T08:21:38;1.30;;;1.30;;
84125;SDS011;74222;58.696;11.254;2024-01-06T08:24:05;1.00;;;1.00;;
84125;SDS011;74222;58.696;11.254;2024-01-06T08:26:31;1.00;;;1.00;;
84125;SDS011;74222;58.696;11.254;2024-01-06T08:28:58;1.00;;;1.00;;
84125;SDS011;74222;58.696;11.254;2024-01-06T08:31:24;0.80;;;0.80;;
84125;SDS011;74222;58.696;11.254;2024-01-06T08:33:51;0.90;;;0.90;;
84125;SDS011;74222;58.696;11.254;2024-01-06T08:36:17;0.97;;;0.97;;
84125;SDS011;74222;58.696;11.254;2024-01-06T08:38:44;0.90;;;0.90;;
84125;SDS011;74222;58.696;11.254;2024-01-06T08:41:10;0.90;;;0.90;;
84125;SDS011;74222;58.696;11.254;2024-01-06T08:43:37;0.90;;;0.90;;
84125;SDS011;74222;58.696;11.254;2024-01-06T08:46:03;0.83;;;0.83;;
84125;SDS011;74222;58.696;11.254;2024-01-06T08:48:30;1.00;;;1.00;;
84125;SDS011;74222;58.696;11.254;2024-01-06T08:50:56;1.10;;;1.10;;
84125;SDS011;74222;58.696;11.254;2024-01-06T08:53:23;0.70;;;0.70;;
84125;SDS011;74222;58.696;11.254;2024-01-06T08:55:49;1.27;;;1.20;;
84125;SDS011;74222;58.696;11.254;2024-01-06T08:58:16;0.80;;;0.80;;
84125;SDS011;74222;58.696;11.254;2024-01-06T09:00:43;0.73;;;0.73;;
84125;SDS011;74222;58.696;11.254;2024-01-06T09:03:09;1.00;;;1.00;;
84125;SDS011;74222;58.696;11.254;2024-01-06T09:05:35;1.00;;;1.00;;
84125;SDS011;74222;58.696;11.254;2024-01-06T09:08:02;0.83;;;0.83;;
84125;SDS011;74222;58.696;11.254;2024-01-06T09:10:28;1.00;;;1.00;;
84125;SDS011;74222;58.696;11.254;2024-01-06T09:12:55;0.93;;;0.93;;
84125;SDS011;74222;58.696;11.254;2024-01-06T09:15:21;1.10;;;1.10;;
84125;SDS011;74222;58.696;11.254;2024-01-06T09:17:48;1.00;;;1.00;;
84125;SDS011;74222;58.696;11.254;2024-01-06T09:20:14;0.87;;;0.87;;
84125;SDS011;74222;58.696;11.254;2024-01-06T09:22:40;0.70;;;0.70;;
84125;SDS011;74222;58.696;11.254;2024-01-06T09:25:07;0.80;;;0.80;;
84125;SDS011;74222;58.696;11.254;2024-01-06T09:27:34;0.90;;;0.90;;
84125;SDS011;74222;58.696;11.254;2024-01-06T09:30:00;1.00;;;1.00;;
84125;SDS011;74222;58.696;11.254;2024-01-06T09:32:26;1.27;;;1.17;;
84125;SDS011;74222;58.696;11.254;2024-01-06T09:34:53;0.97;;;0.97;;
84125;SDS011;74222;58.696;11.254;2024-01-06T09:37:19;1.20;;;1.20;;
84125;SDS011;74222;58.696;11.254;2024-01-06T09:39:46;1.33;;;1.23;;
84125;SDS011;74222;58.696;11.254;2024-01-06T09:42:12;1.30;;;1.20;;
84125;SDS011;74222;58.696;11.254;2024-01-06T09:44:39;1.13;;;1.10;;
84125;SDS011;74222;58.696;11.254;2024-01-06T09:47:05;0.90;;;0.90;;
84125;SDS011;74222;58.696;11.254;2024-01-06T09:49:32;1.53;;;1.43;;
84125;SDS011;74222;58.696;11.254;2024-01-06T09:51:59;1.57;;;1.47;;
84125;SDS011;74222;58.696;11.254;2024-01-06T09:54:25;1.33;;;1.23;;
84125;SDS011;74222;58.696;11.254;2024-01-06T09:56:51;1.43;;;1.33;;
84125;SDS011;74222;58.696;11.254;2024-01-06T09:59:18;1.33;;;1.23;;
84125;SDS011;74222;58.696;11.254;2024-01-06T10:01:45;1.20;;;1.20;;
84125;SDS011;74222;58.696;11.254;2024-01-06T10:04:12;1.40;;;1.30;;
84125;SDS011;74222;58.696;11.254;2024-01-06T10:06:38;1.40;;;1.30;;
84125;SDS011;74222;58.696;11.254;2024-01-06T10:09:05;1.30;;;1.20;;
84125;SDS011;74222;58.696;11.254;2024-01-06T10:11:31;1.40;;;1.40;;
84125;SDS011;74222;58.696;11.254;2024-01-06T10:13:58;1.23;;;1.13;;
84125;SDS011;74222;58.696;11.254;2024-01-06T10:16:24;1.20;;;1.20;;
84125;SDS011;74222;58.696;11.254;2024-01-06T10:18:51;1.13;;;1.13;;
84125;SDS011;74222;58.696;11.254;2024-01-06T10:21:17;1.27;;;1.00;;
84125;SDS011;74222;58.696;11.254;2024-01-06T10:23:44;1.13;;;1.10;;
84125;SDS011;74222;58.696;11.254;2024-01-06T10:26:12;1.03;;;1.00;;
84125;SDS011;74222;58.696;11.254;2024-01-06T10:28:38;1.10;;;1.10;;
84125;SDS011;74222;58.696;11.254;2024-01-06T10:31:05;1.50;;;1.40;;
84125;SDS011;74222;58.696;11.254;2024-01-06T10:33:31;1.17;;;1.17;;
84125;SDS011;74222;58.696;11.254;2024-01-06T10:35:58;1.07;;;1.07;;
84125;SDS011;74222;58.696;11.254;2024-01-06T10:38:25;1.30;;;1.20;;
84125;SDS011;74222;58.696;11.254;2024-01-06T10:40:56;1.10;;;1.10;;
84125;SDS011;74222;58.696;11.254;2024-01-06T10:43:25;1.13;;;1.13;;
84125;SDS011;74222;58.696;11.254;2024-01-06T10:45:51;1.10;;;1.10;;
84125;SDS011;74222;58.696;11.254;2024-01-06T10:48:18;1.17;;;1.07;;
84125;SDS011;74222;58.696;11.254;2024-01-06T10:50:44;1.50;;;1.40;;
84125;SDS011;74222;58.696;11.254;2024-01-06T10:53:11;1.10;;;1.10;;
84125;SDS011;74222;58.696;11.254;2024-01-06T10:55:37;0.97;;;0.97;;
84125;SDS011;74222;58.696;11.254;2024-01-06T10:58:04;0.93;;;0.93;;
84125;SDS011;74222;58.696;11.254;2024-01-06T11:00:30;1.10;;;1.10;;
84125;SDS011;74222;58.696;11.254;2024-01-06T11:02:57;1.40;;;1.30;;
84125;SDS011;74222;58.696;11.254;2024-01-06T11:05:23;1.17;;;1.17;;
84125;SDS011;74222;58.696;11.254;2024-01-06T11:07:50;1.00;;;1.00;;
84125;SDS011;74222;58.696;11.254;2024-01-06T11:10:16;1.50;;;1.40;;
84125;SDS011;74222;58.696;11.254;2024-01-06T11:12:43;1.47;;;1.37;;
84125;SDS011;74222;58.696;11.254;2024-01-06T11:15:09;1.40;;;1.30;;
84125;SDS011;74222;58.696;11.254;2024-01-06T11:20:14;2.97;;;2.67;;
84125;SDS011;74222;58.696;11.254;2024-01-06T11:22:40;3.00;;;2.70;;
84125;SDS011;74222;58.696;11.254;2024-01-06T11:25:07;3.97;;;2.50;;
84125;SDS011;74222;58.696;11.254;2024-01-06T11:27:34;2.67;;;2.40;;
84125;SDS011;74222;58.696;11.254;2024-01-06T11:30:02;3.90;;;2.90;;
84125;SDS011;74222;58.696;11.254;2024-01-06T11:32:32;3.20;;;2.50;;
84125;SDS011;74222;58.696;11.254;2024-01-06T11:35:05;2.90;;;2.43;;
84125;SDS011;74222;58.696;11.254;2024-01-06T11:37:34;3.10;;;2.57;;
84125;SDS011;74222;58.696;11.254;2024-01-06T11:40:04;2.20;;;2.00;;
84125;SDS011;74222;58.696;11.254;2024-01-06T11:42:35;3.13;;;2.37;;
84125;SDS011;74222;58.696;11.254;2024-01-06T11:45:02;2.50;;;2.00;;
84125;SDS011;74222;58.696;11.254;2024-01-06T11:47:29;2.47;;;2.27;;
84125;SDS011;74222;58.696;11.254;2024-01-06T11:49:55;2.10;;;1.90;;
84125;SDS011;74222;58.696;11.254;2024-01-06T11:52:22;2.23;;;2.03;;
84125;SDS011;74222;58.696;11.254;2024-01-06T11:54:48;2.00;;;1.70;;
84125;SDS011;74222;58.696;11.254;2024-01-06T11:57:15;2.00;;;1.90;;
84125;SDS011;74222;58.696;11.254;2024-01-06T11:59:41;1.60;;;1.50;;
84125;SDS011;74222;58.696;11.254;2024-01-06T12:02:11;1.90;;;1.80;;
84125;SDS011;74222;58.696;11.254;2024-01-06T12:04:37;1.63;;;1.53;;
84125;SDS011;74222;58.696;11.254;2024-01-06T12:07:05;1.53;;;1.43;;
84125;SDS011;74222;58.696;11.254;2024-01-06T12:09:31;1.60;;;1.50;;
84125;SDS011;74222;58.696;11.254;2024-01-06T12:12:02;1.50;;;1.40;;
84125;SDS011;74222;58.696;11.254;2024-01-06T12:14:28;1.80;;;1.67;;
84125;SDS011;74222;58.696;11.254;2024-01-06T12:16:54;1.63;;;1.53;;
84125;SDS011;74222;58.696;11.254;2024-01-06T12:19:21;1.10;;;1.10;;
84125;SDS011;74222;58.696;11.254;2024-01-06T12:21:47;1.83;;;1.73;;
84125;SDS011;74222;58.696;11.254;2024-01-06T12:24:16;1.40;;;1.30;;
84125;SDS011;74222;58.696;11.254;2024-01-06T12:26:42;1.50;;;1.40;;
84125;SDS011;74222;58.696;11.254;2024-01-06T12:29:09;1.20;;;1.10;;
84125;SDS011;74222;58.696;11.254;2024-01-06T12:31:35;1.30;;;1.20;;
84125;SDS011;74222;58.696;11.254;2024-01-06T12:34:02;1.30;;;1.30;;
84125;SDS011;74222;58.696;11.254;2024-01-06T12:36:28;1.50;;;1.40;;
84125;SDS011;74222;58.696;11.254;2024-01-06T12:38:55;1.70;;;1.60;;
84125;SDS011;74222;58.696;11.254;2024-01-06T12:41:21;1.13;;;1.13;;
84125;SDS011;74222;58.696;11.254;2024-01-06T12:43:47;1.07;;;1.07;;
84125;SDS011;74222;58.696;11.254;2024-01-06T12:46:14;1.07;;;1.07;;
84125;SDS011;74222;58.696;11.254;2024-01-06T12:48:41;1.17;;;1.10;;
84125;SDS011;74222;58.696;11.254;2024-01-06T12:51:07;1.60;;;1.50;;
84125;SDS011;74222;58.696;11.254;2024-01-06T12:53:33;1.10;;;1.10;;
84125;SDS011;74222;58.696;11.254;2024-01-06T12:56:00;1.30;;;1.20;;
84125;SDS011;74222;58.696;11.254;2024-01-06T12:58:26;0.93;;;0.93;;
84125;SDS011;74222;58.696;11.254;2024-01-06T13:00:53;1.30;;;1.27;;
84125;SDS011;74222;58.696;11.254;2024-01-06T13:03:19;1.07;;;1.07;;
84125;SDS011;74222;58.696;11.254;2024-01-06T13:05:46;1.27;;;1.17;;
84125;SDS011;74222;58.696;11.254;2024-01-06T13:08:12;0.93;;;0.93;;
84125;SDS011;74222;58.696;11.254;2024-01-06T13:10:39;1.10;;;1.10;;
84125;SDS011;74222;58.696;11.254;2024-01-06T13:13:05;1.17;;;1.07;;
84125;SDS011;74222;58.696;11.254;2024-01-06T13:15:32;1.00;;;1.00;;
84125;SDS011;74222;58.696;11.254;2024-01-06T13:17:58;0.90;;;0.90;;
84125;SDS011;74222;58.696;11.254;2024-01-06T13:20:25;0.80;;;0.80;;
84125;SDS011;74222;58.696;11.254;2024-01-06T13:22:51;0.90;;;0.90;;
84125;SDS011;74222;58.696;11.254;2024-01-06T13:25:18;1.03;;;1.03;;
84125;SDS011;74222;58.696;11.254;2024-01-06T13:27:44;1.10;;;1.10;;
84125;SDS011;74222;58.696;11.254;2024-01-06T13:30:11;0.73;;;0.73;;
84125;SDS011;74222;58.696;11.254;2024-01-06T13:32:38;1.10;;;1.10;;
84125;SDS011;74222;58.696;11.254;2024-01-06T13:35:04;1.20;;;1.20;;
84125;SDS011;74222;58.696;11.254;2024-01-06T13:37:32;1.07;;;1.07;;
84125;SDS011;74222;58.696;11.254;2024-01-06T13:39:58;1.60;;;1.40;;
84125;SDS011;74222;58.696;11.254;2024-01-06T13:42:24;1.93;;;1.70;;
84125;SDS011;74222;58.696;11.254;2024-01-06T13:44:51;2.57;;;2.20;;
84125;SDS011;74222;58.696;11.254;2024-01-06T13:47:17;3.47;;;2.37;;
84125;SDS011;74222;58.696;11.254;2024-01-06T13:49:44;3.27;;;2.50;;
84125;SDS011;74222;58.696;11.254;2024-01-06T13:52:10;3.87;;;3.07;;
84125;SDS011;74222;58.696;11.254;2024-01-06T13:54:37;3.97;;;2.90;;
84125;SDS011;74222;58.696;11.254;2024-01-06T13:57:03;3.47;;;3.17;;
84125;SDS011;74222;58.696;11.254;2024-01-06T13:59:30;4.10;;;3.30;;
84125;SDS011;74222;58.696;11.254;2024-01-06T14:01:56;4.00;;;3.60;;
84125;SDS011;74222;58.696;11.254;2024-01-06T14:04:23;3.30;;;3.00;;
84125;SDS011;74222;58.696;11.254;2024-01-06T14:06:49;2.80;;;2.60;;
84125;SDS011;74222;58.696;11.254;2024-01-06T14:09:16;3.10;;;2.80;;
84125;SDS011;74222;58.696;11.254;2024-01-06T14:11:42;4.13;;;3.73;;
84125;SDS011;74222;58.696;11.254;2024-01-06T14:14:09;6.33;;;5.70;;
84125;SDS011;74222;58.696;11.254;2024-01-06T14:16:35;7.00;;;6.27;;
84125;SDS011;74222;58.696;11.254;2024-01-06T14:19:02;7.30;;;6.30;;
84125;SDS011;74222;58.696;11.254;2024-01-06T14:21:28;6.67;;;5.97;;
84125;SDS011;74222;58.696;11.254;2024-01-06T14:23:55;6.37;;;5.77;;
84125;SDS011;74222;58.696;11.254;2024-01-06T14:26:21;7.27;;;5.73;;
84125;SDS011;74222;58.696;11.254;2024-01-06T14:28:48;6.20;;;5.57;;
84125;SDS011;74222;58.696;11.254;2024-01-06T14:31:14;5.57;;;5.00;;